娱乐城时时彩,错那一中吧,大通二中吧,泸县三中,永仁一中吧
辽阳吧 辽阳特产 辽阳新闻网 辽阳天气 辽阳百姓网
   

产品导航




















  
当前位置:娱乐城时时彩

  娱乐城时时彩号称“金刚不坏”的维斯布鲁克在被没安刹车的贝弗利撞上之后,人生第一次缺席比赛,即使如此,一直被人们认为是有着非人类的形态二师兄维斯,在膝盖半月板撕裂的情况下,仍旧打完了那场比赛并出场37分钟拿下29分4个篮4次助攻4次抢断。

  按照港交所披露的资料,截至2016年1月4日,新世界中国共有已发行股份86.94亿股,其中59.77亿股由新世界发展持有。 (二十)促进产业创新发展。

  北京时间1月12日凌晨1点30分,2015年国际足联年度颁奖典礼将在苏黎世的国际足联总部成功举行,颁出了多项大奖。 从根本制度上解决中国股市问题,包括发行制度、交易制度、分红制度、退市制度、信息披露制度、法律制度,都健全起来,中国的市场变成一个公平、公正、公开、透明和有生机的一个市场。

  《劳动新闻》称,金正恩日前将参与朝鲜首次氢弹试验的核科学家、技术人员、军方建设人员等有功者邀请至朝鲜劳动党中央委员会大楼,高度评价了他们为国家所作出的贡献,并与他们合影留念。

  

  目前房地产市场库存严重过剩的是三四线城市及部分二线城市,当前中国房地产市场的去库存主要是针对这些城市。 彼时,虽然个股跌幅都非常大,但司迪持有的价值股跌幅十分有限,这也进一步坚持了他持股的信心。

    “如果再选择一次,我们肯定不在大街上争吵了!”昨日,在第三军医大学大坪医院接受治疗的梁平县女孩后悔不已。 现在世界排名第一的比利时队的主力阵容基本就是由这支球队打造。

  这对于形成高度集中统一的军事决策领导机构十分有利。

  

  ”皮海洲说。 达喀尔拉力赛进入第7赛段,标致车手塞恩斯获得了本赛段的第一,而总成绩上,法国人勒布则重新回到领先的位置上。

  从这个时候开始,广东正式打破了八一垄断的局势,广东王朝也正式开启。

  在CBA的首个赛季中,李春江一共命中了78个三分球,仅次于胡卫东位居联盟次席,但他42.4%的三分球命中率却远高于胡卫东。

  SBRD 090220Z 10005KT 1000 BCFG NSC 22/22 Q1011= 内特出生于1984年,他身高1.75米,体重82公斤,司职控卫。

友情链接:
曾道人 香港正版挂牌之全篇 香港马会资料大全 香港马会资料 香港历史开奖记录 今期开码结果开奖 东方心经马报 四肖中特期期准 2017年香港全年资料 香港赛马会资料 118图库 王中王开奖结果 118图库彩图图库 118图库彩图 正版免费料大全 2017年香港全年资料 今晚二肖必中特 香港马会开奖结果直播 今晚开奖结果现场直播 今期东方心经马报 今晚开奖现场直播2017年 2017香港开奖现场直播 香港王中王网站 真正香港一码中特图 香港官方网免费资料 香港最准一肖一码 最准的特马网站 香港赛马会官方网 香港赛马会唯一官方网 手机看开奖结果 香港最快开奖结果 特码开奖结果查询 香港正版挂牌之全篇 香港金多宝开奖结果 香港马会 开奖直播 2017香港历史开奖记录 马会免费特供资料站


本站所有站内信息仅供娱乐参考,不作任何商业用途,不以营利为目的,专注分享快乐,欢迎收藏本站!
所有信息均来自:百度一下(辽阳大杂烩)